Time;durP1;ratioP1;P1;durP2;ratioP2;P2;SDS_P1;SDS_P2;PMS_P1;PMS_P2;Temp;Humidity;BMP_temperature;BMP_pressure;BME280_temperature;BME280_humidity;BME280_pressure;Samples;Min_cycle;Max_cycle;Signal;HPM_P1;HPM_P2
2022/04/06 00:02:04;;;;;;;20.67;6.03;;;10.10;99.90;;;;;;5012272;28;20219;-88
2022/04/06 00:04:32;;;;;;;17.67;6.27;;;10.10;99.90;;;;;;5008879;28;20235;-87
2022/04/06 00:06:59;;;;;;;17.70;6.03;;;10.10;99.90;;;;;;5010967;28;21153;-88
2022/04/06 00:09:26;;;;;;;19.07;6.50;;;10.00;99.90;;;;;;5009217;28;20799;-87
2022/04/06 00:11:53;;;;;;;18.50;7.00;;;10.00;99.90;;;;;;5008743;28;20286;-89
2022/04/06 00:14:20;;;;;;;18.20;5.80;;;10.00;99.90;;;;;;5014972;28;20303;-90
2022/04/06 00:16:47;;;;;;;18.63;8.17;;;10.00;99.90;;;;;;5011527;28;20200;-89
2022/04/06 00:19:14;;;;;;;13.23;5.97;;;10.00;99.90;;;;;;5027748;28;20200;-86
2022/04/06 00:21:41;;;;;;;19.07;5.87;;;10.00;99.90;;;;;;5009779;28;20215;-88
2022/04/06 00:24:08;;;;;;;21.30;6.97;;;10.00;99.90;;;;;;5010452;28;20486;-87
2022/04/06 00:26:35;;;;;;;20.17;7.33;;;10.00;99.90;;;;;;5010913;28;20212;-85
2022/04/06 00:29:03;;;;;;;14.57;6.50;;;10.00;99.90;;;;;;5024884;28;20219;-86
2022/04/06 00:31:31;;;;;;;14.73;6.40;;;10.00;99.90;;;;;;5026704;28;20224;-87
2022/04/06 00:33:58;;;;;;;14.03;5.80;;;10.00;99.90;;;;;;5026051;28;20294;-88
2022/04/06 00:36:25;;;;;;;16.27;6.33;;;10.00;99.90;;;;;;5017532;28;20234;-88
2022/04/06 00:38:52;;;;;;;16.77;6.40;;;10.00;99.90;;;;;;5008727;28;20315;-87
2022/04/06 00:41:21;;;;;;;16.23;6.73;;;10.00;99.90;;;;;;5027224;28;20224;-85
2022/04/06 00:44:11;;;;;;;17.40;6.03;;;10.00;99.90;;;;;;5008274;28;20808;-88
2022/04/06 00:46:38;;;;;;;17.40;6.40;;;10.00;99.90;;;;;;5005977;28;20215;-87
2022/04/06 00:49:11;;;;;;;16.47;6.53;;;10.00;99.90;;;;;;5009909;28;20218;-88
2022/04/06 00:51:45;;;;;;;15.30;5.83;;;10.00;99.90;;;;;;5009866;28;20341;-88
2022/04/06 00:54:15;;;;;;;17.37;6.37;;;10.00;99.90;;;;;;5002523;28;20256;-88
2022/04/06 00:56:45;;;;;;;13.83;5.93;;;9.90;99.90;;;;;;5008536;28;20243;-87
2022/04/06 00:59:14;;;;;;;12.20;6.20;;;10.00;99.90;;;;;;5004974;28;20986;-86
2022/04/06 01:01:41;;;;;;;12.80;5.27;;;9.90;99.90;;;;;;5009804;28;20203;-89
2022/04/06 01:04:08;;;;;;;14.17;5.33;;;9.90;99.90;;;;;;5009105;28;20250;-87
2022/04/06 01:06:35;;;;;;;15.10;5.97;;;9.90;99.90;;;;;;5014609;28;20212;-88
2022/04/06 01:09:03;;;;;;;15.73;5.87;;;9.90;99.90;;;;;;5011195;28;20231;-86
2022/04/06 01:11:31;;;;;;;19.03;5.03;;;9.90;99.90;;;;;;5009626;28;20309;-88
2022/04/06 01:13:58;;;;;;;11.47;4.60;;;9.90;99.90;;;;;;5025136;28;20220;-88
2022/04/06 01:16:25;;;;;;;13.00;4.50;;;9.90;99.90;;;;;;4995394;28;20207;-89
2022/04/06 01:18:53;;;;;;;12.10;5.47;;;9.90;99.90;;;;;;5007715;28;20221;-90
2022/04/06 01:21:21;;;;;;;20.00;5.47;;;9.90;99.90;;;;;;5011059;28;20265;-90
2022/04/06 01:23:48;;;;;;;15.10;4.73;;;9.90;99.90;;;;;;5028402;28;20203;-88
2022/04/06 01:26:15;;;;;;;11.40;4.80;;;9.90;99.90;;;;;;5027988;28;20370;-88
2022/04/06 01:28:42;;;;;;;13.50;4.83;;;9.80;99.90;;;;;;5009978;28;20347;-88
2022/04/06 01:31:10;;;;;;;14.03;5.00;;;9.90;99.90;;;;;;5001444;28;20221;-91
2022/04/06 01:33:37;;;;;;;13.77;4.77;;;9.80;99.90;;;;;;5014228;28;20238;-88
2022/04/06 01:36:04;;;;;;;13.80;5.23;;;9.80;99.90;;;;;;5013125;28;20214;-89
2022/04/06 01:38:31;;;;;;;14.80;4.70;;;9.80;99.90;;;;;;5025266;28;20227;-90
2022/04/06 01:40:58;;;;;;;17.93;4.97;;;9.80;99.90;;;;;;5008907;28;20204;-88
2022/04/06 01:43:25;;;;;;;12.63;5.23;;;9.80;99.90;;;;;;5011315;28;20242;-88
2022/04/06 01:45:53;;;;;;;15.23;4.20;;;9.80;99.90;;;;;;5010661;28;20203;-87
2022/04/06 01:48:20;;;;;;;13.50;4.30;;;9.80;99.90;;;;;;5006847;28;20202;-90
2022/04/06 01:53:34;;;;;;;12.23;4.13;;;9.80;99.90;;;;;;5028752;28;20228;-88
2022/04/06 01:56:01;;;;;;;13.20;3.50;;;9.80;99.90;;;;;;5010797;28;20548;-90
2022/04/06 01:58:28;;;;;;;8.50;3.90;;;9.80;99.90;;;;;;5014981;28;20208;-90
2022/04/06 02:00:55;;;;;;;10.10;3.63;;;9.80;99.90;;;;;;5016721;28;20201;-88
2022/04/06 02:03:22;;;;;;;15.00;3.77;;;9.80;99.90;;;;;;5032945;28;20261;-89
2022/04/06 02:05:49;;;;;;;13.60;4.37;;;9.80;99.90;;;;;;5019812;28;20289;-90
2022/04/06 02:08:16;;;;;;;11.73;3.77;;;9.80;99.90;;;;;;4989241;28;20240;-87
2022/04/06 02:10:43;;;;;;;9.37;3.87;;;9.80;99.90;;;;;;5016383;28;20296;-89
2022/04/06 02:13:11;;;;;;;13.13;3.50;;;9.80;99.90;;;;;;5016257;28;20288;-91
2022/04/06 02:15:39;;;;;;;10.73;4.17;;;9.80;99.90;;;;;;5015756;28;20203;-90
2022/04/06 02:18:07;;;;;;;7.87;3.80;;;9.80;99.90;;;;;;5014242;28;20625;-89
2022/04/06 02:20:34;;;;;;;8.90;3.43;;;9.80;99.90;;;;;;5014155;28;20201;-89
2022/04/06 02:23:01;;;;;;;17.47;4.13;;;9.70;99.90;;;;;;5015019;28;20563;-90
2022/04/06 02:25:28;;;;;;;13.23;4.73;;;9.70;99.90;;;;;;5016329;28;20199;-88
2022/04/06 02:27:55;;;;;;;10.80;3.57;;;9.80;99.90;;;;;;5010513;28;20245;-87
2022/04/06 02:30:22;;;;;;;12.60;3.53;;;9.70;99.90;;;;;;5013473;28;20243;-90
2022/04/06 02:32:50;;;;;;;8.87;3.37;;;9.70;99.90;;;;;;5028378;28;20285;-88
2022/04/06 02:35:17;;;;;;;12.67;3.67;;;9.70;99.90;;;;;;5026716;28;20566;-87
2022/04/06 02:37:44;;;;;;;9.50;3.27;;;9.70;99.90;;;;;;5011873;28;20242;-88
2022/04/06 02:40:14;;;;;;;11.20;3.67;;;9.70;99.90;;;;;;5012900;28;20576;-89
2022/04/06 02:42:42;;;;;;;9.27;3.30;;;9.70;99.90;;;;;;5029025;28;20208;-87
2022/04/06 02:45:10;;;;;;;11.27;3.20;;;9.70;99.90;;;;;;5009809;28;20220;-90
2022/04/06 02:47:41;;;;;;;5.50;3.03;;;9.60;99.90;;;;;;5014225;28;20492;-86
2022/04/06 02:50:08;;;;;;;9.30;3.07;;;9.70;99.90;;;;;;5009982;28;20305;-86
2022/04/06 02:52:35;;;;;;;9.63;3.10;;;9.70;99.90;;;;;;5029309;28;20268;-90
2022/04/06 02:55:02;;;;;;;11.67;2.87;;;9.70;99.90;;;;;;5010447;28;20239;-88
2022/04/06 02:57:29;;;;;;;7.73;3.20;;;9.60;99.90;;;;;;5012520;28;20200;-88
2022/04/06 02:59:56;;;;;;;8.40;2.60;;;9.60;99.90;;;;;;5010352;28;20211;-89
2022/04/06 03:02:23;;;;;;;10.80;2.97;;;9.60;99.90;;;;;;5011908;28;20343;-85
2022/04/06 03:04:50;;;;;;;7.63;2.80;;;9.60;99.90;;;;;;5026773;28;20304;-89
2022/04/06 03:07:18;;;;;;;6.87;3.07;;;9.60;99.90;;;;;;5012621;28;20268;-89
2022/04/06 03:09:45;;;;;;;10.70;3.13;;;9.50;99.90;;;;;;5022847;28;20359;-87
2022/04/06 03:12:12;;;;;;;8.30;2.77;;;9.50;99.90;;;;;;5011427;28;20208;-87
2022/04/06 03:14:39;;;;;;;10.20;2.43;;;9.50;99.90;;;;;;5010727;28;20273;-89
2022/04/06 03:17:06;;;;;;;8.33;2.63;;;9.60;99.90;;;;;;5015536;28;20219;-86
2022/04/06 03:19:34;;;;;;;6.87;2.50;;;9.50;99.90;;;;;;5009475;28;20199;-89
2022/04/06 03:22:02;;;;;;;8.83;3.00;;;9.50;99.90;;;;;;5030366;28;20602;-88
2022/04/06 03:24:29;;;;;;;8.10;2.40;;;9.50;99.90;;;;;;5013231;28;20232;-89
2022/04/06 03:26:56;;;;;;;7.60;2.60;;;9.50;99.90;;;;;;5026442;28;20215;-86
2022/04/06 03:29:23;;;;;;;6.73;3.50;;;9.40;99.90;;;;;;5007106;28;20235;-88
2022/04/06 03:31:50;;;;;;;10.73;2.40;;;9.40;99.90;;;;;;5012557;28;20220;-86
2022/04/06 03:34:17;;;;;;;12.60;2.90;;;9.40;99.90;;;;;;5023462;28;20292;-87
2022/04/06 03:36:45;;;;;;;5.80;2.10;;;9.40;99.90;;;;;;5028328;28;20243;-89
2022/04/06 03:39:12;;;;;;;6.03;2.30;;;9.40;99.90;;;;;;5027722;28;20232;-88
2022/04/06 03:41:39;;;;;;;7.90;2.90;;;9.40;99.90;;;;;;5011111;28;20201;-89
2022/04/06 03:44:05;;;;;;;12.73;2.53;;;9.40;99.90;;;;;;5015004;28;20219;-88
2022/04/06 03:46:32;;;;;;;7.97;2.07;;;9.40;99.90;;;;;;5012014;28;20221;-87
2022/04/06 03:49:06;;;;;;;9.20;2.53;;;9.40;99.90;;;;;;5012612;28;20191;-88
2022/04/06 03:51:33;;;;;;;7.33;2.10;;;9.40;99.90;;;;;;5028455;28;20201;-88
2022/04/06 03:54:00;;;;;;;9.13;2.30;;;9.40;99.90;;;;;;4992785;28;20199;-88
2022/04/06 03:56:27;;;;;;;4.40;2.00;;;9.40;99.90;;;;;;5028887;28;21338;-87
2022/04/06 03:58:54;;;;;;;8.37;2.73;;;9.40;99.90;;;;;;5011737;28;20239;-88
2022/04/06 04:01:21;;;;;;;7.30;2.40;;;9.40;99.90;;;;;;5007266;28;20299;-88
2022/04/06 04:03:50;;;;;;;8.80;2.90;;;9.40;99.90;;;;;;5010371;28;21208;-86
2022/04/06 04:06:17;;;;;;;8.87;2.50;;;9.30;99.90;;;;;;5027374;28;20295;-89
2022/04/06 04:08:43;;;;;;;10.33;2.53;;;9.30;99.90;;;;;;5013338;28;20202;-88
2022/04/06 04:11:10;;;;;;;9.83;2.53;;;9.30;99.90;;;;;;5011589;28;20908;-89
2022/04/06 04:13:37;;;;;;;7.13;2.33;;;9.40;99.90;;;;;;5011611;28;20239;-88
2022/04/06 04:16:05;;;;;;;6.90;2.10;;;9.40;99.90;;;;;;5013076;28;20205;-88
2022/04/06 04:18:32;;;;;;;6.77;2.57;;;9.40;99.90;;;;;;5008471;28;20203;-87
2022/04/06 04:23:45;;;;;;;7.63;2.80;;;9.40;99.90;;;;;;5026318;28;20210;-87
2022/04/06 04:26:12;;;;;;;7.67;2.33;;;9.40;99.90;;;;;;5004784;28;20967;-89
2022/04/06 04:28:38;;;;;;;5.03;2.40;;;9.40;99.90;;;;;;5012510;28;20210;-89
2022/04/06 04:31:05;;;;;;;4.13;1.93;;;9.40;99.90;;;;;;5015305;28;20264;-88
2022/04/06 04:33:32;;;;;;;5.43;1.97;;;9.40;99.90;;;;;;5010533;28;20246;-88
2022/04/06 04:35:59;;;;;;;7.90;2.73;;;9.30;99.90;;;;;;5009881;28;20241;-89
2022/04/06 04:38:27;;;;;;;7.77;2.80;;;9.40;99.90;;;;;;5024132;28;20316;-87
2022/04/06 04:40:54;;;;;;;5.97;1.97;;;9.40;99.90;;;;;;5009425;28;20206;-91
2022/04/06 04:43:22;;;;;;;4.20;2.27;;;9.40;99.90;;;;;;5012041;28;20210;-88
2022/04/06 04:45:49;;;;;;;9.67;2.60;;;9.40;99.90;;;;;;5011390;28;20224;-88
2022/04/06 04:48:16;;;;;;;5.90;1.97;;;9.40;99.90;;;;;;5009767;28;20231;-88
2022/04/06 04:50:43;;;;;;;5.57;2.20;;;9.40;99.90;;;;;;5011008;28;20759;-86
2022/04/06 04:53:10;;;;;;;5.33;1.93;;;9.40;99.90;;;;;;5008399;28;20252;-88
2022/04/06 04:55:37;;;;;;;7.00;2.50;;;9.40;99.90;;;;;;5028078;28;20221;-87
2022/04/06 04:58:04;;;;;;;7.30;2.47;;;9.40;99.90;;;;;;5010385;28;20221;-88
2022/04/06 05:00:31;;;;;;;7.43;2.80;;;9.40;99.90;;;;;;5025996;28;20281;-86
2022/04/06 05:02:58;;;;;;;9.97;2.50;;;9.40;99.90;;;;;;5025293;28;20209;-88
2022/04/06 05:05:25;;;;;;;9.17;2.70;;;9.40;99.90;;;;;;5011319;28;20737;-89
2022/04/06 05:07:52;;;;;;;8.43;2.90;;;9.40;99.90;;;;;;5014891;28;20275;-89
2022/04/06 05:10:19;;;;;;;7.40;2.60;;;9.40;99.90;;;;;;5009549;28;21210;-87
2022/04/06 05:12:48;;;;;;;11.00;2.87;;;9.40;99.90;;;;;;5009350;28;20902;-89
2022/04/06 05:15:15;;;;;;;9.60;3.00;;;9.40;99.90;;;;;;5010426;28;20969;-87
2022/04/06 05:17:42;;;;;;;9.27;3.10;;;9.40;99.90;;;;;;5011354;28;20203;-86
2022/04/06 05:20:10;;;;;;;14.90;3.90;;;9.40;99.90;;;;;;5007311;28;20205;-87
2022/04/06 05:22:38;;;;;;;12.60;3.47;;;9.40;99.90;;;;;;5002493;28;20357;-89
2022/04/06 05:25:07;;;;;;;9.70;3.90;;;9.40;99.90;;;;;;5025751;28;20235;-88
2022/04/06 05:27:55;;;;;;;11.63;3.93;;;9.50;99.90;;;;;;5006912;28;20293;-88
2022/04/06 05:30:24;;;;;;;10.03;3.60;;;9.50;99.90;;;;;;5003868;28;20221;-87
2022/04/06 05:32:54;;;;;;;8.53;3.60;;;9.50;99.90;;;;;;5009555;28;20214;-86
2022/04/06 05:35:23;;;;;;;8.93;3.20;;;9.50;99.90;;;;;;5007114;28;20283;-89
2022/04/06 05:37:51;;;;;;;12.20;3.83;;;9.50;99.90;;;;;;5030427;28;20220;-87
2022/04/06 05:40:19;;;;;;;12.40;3.70;;;9.50;99.90;;;;;;5014286;28;20234;-87
2022/04/06 05:42:46;;;;;;;12.27;3.57;;;9.50;99.90;;;;;;5014199;28;20225;-88
2022/04/06 05:45:13;;;;;;;8.73;3.77;;;9.50;99.90;;;;;;5014581;28;20224;-88
2022/04/06 05:47:42;;;;;;;13.83;3.80;;;9.50;99.90;;;;;;5013335;28;21283;-88
2022/04/06 05:50:10;;;;;;;12.73;4.37;;;9.50;99.90;;;;;;5031180;28;20580;-88
2022/04/06 05:52:37;;;;;;;10.37;3.13;;;9.50;99.90;;;;;;5011947;28;20213;-87
2022/04/06 05:55:05;;;;;;;11.67;3.30;;;9.50;99.90;;;;;;5012834;28;20201;-89
2022/04/06 05:57:32;;;;;;;5.93;2.53;;;9.50;99.90;;;;;;5032409;28;20228;-87
2022/04/06 05:59:59;;;;;;;8.63;3.43;;;9.50;99.90;;;;;;5013234;28;20654;-85
2022/04/06 06:02:26;;;;;;;13.40;4.43;;;9.50;99.90;;;;;;5007646;28;20206;-87
2022/04/06 06:04:53;;;;;;;7.33;2.50;;;9.60;99.90;;;;;;5031827;28;20236;-88
2022/04/06 06:07:22;;;;;;;7.40;2.63;;;9.50;99.90;;;;;;5012452;28;20577;-87
2022/04/06 06:09:49;;;;;;;10.20;2.90;;;9.60;99.90;;;;;;5031833;28;20205;-88
2022/04/06 06:12:16;;;;;;;8.30;2.70;;;9.60;99.90;;;;;;4980935;28;20337;-85
2022/04/06 06:14:42;;;;;;;10.70;2.53;;;9.60;99.90;;;;;;5026444;28;20230;-89
2022/04/06 06:17:11;;;;;;;9.40;2.33;;;9.60;99.90;;;;;;5022915;28;20299;-87
2022/04/06 06:19:38;;;;;;;6.37;2.07;;;9.60;99.90;;;;;;5013122;28;20677;-88
2022/04/06 06:22:05;;;;;;;6.37;2.30;;;9.60;99.90;;;;;;5027259;28;20206;-86
2022/04/06 06:24:32;;;;;;;3.20;1.43;;;9.60;99.90;;;;;;5029607;28;20216;-86
2022/04/06 06:26:59;;;;;;;5.60;1.67;;;9.70;99.90;;;;;;5014344;28;20221;-87
2022/04/06 06:29:26;;;;;;;6.90;1.87;;;9.70;99.90;;;;;;5010119;28;20267;-90
2022/04/06 06:31:54;;;;;;;7.20;1.57;;;9.70;99.90;;;;;;5031706;28;20217;-88
2022/04/06 06:34:21;;;;;;;4.40;1.60;;;9.80;99.90;;;;;;5009970;28;20244;-84
2022/04/06 06:36:48;;;;;;;6.03;1.60;;;9.70;99.90;;;;;;5009832;28;20194;-84
2022/04/06 06:39:15;;;;;;;6.47;1.57;;;9.70;99.90;;;;;;5005764;28;20299;-84
2022/04/06 06:41:43;;;;;;;3.27;1.00;;;9.70;99.90;;;;;;5009941;28;20209;-84
2022/04/06 06:44:10;;;;;;;4.50;1.60;;;9.70;99.90;;;;;;5009707;28;20215;-83
2022/04/06 06:46:36;;;;;;;6.90;2.60;;;9.70;99.90;;;;;;5010219;28;20583;-83
2022/04/06 06:49:04;;;;;;;3.13;1.47;;;9.80;99.90;;;;;;5008962;28;20237;-83
2022/04/06 06:51:32;;;;;;;8.70;1.40;;;9.80;99.90;;;;;;5026513;28;20656;-86
2022/04/06 06:54:00;;;;;;;5.97;1.60;;;9.80;99.90;;;;;;5014299;28;20225;-85
2022/04/06 06:56:27;;;;;;;3.73;1.30;;;9.80;99.90;;;;;;5009815;28;20574;-84
2022/04/06 06:58:55;;;;;;;6.80;1.30;;;9.80;99.90;;;;;;5015706;28;20214;-85
2022/04/06 07:01:23;;;;;;;4.30;1.40;;;9.90;99.90;;;;;;5027654;28;20222;-86
2022/04/06 07:03:50;;;;;;;6.77;1.90;;;9.90;99.90;;;;;;5012056;28;20295;-80
2022/04/06 07:06:17;;;;;;;4.00;1.40;;;9.90;99.90;;;;;;5022164;28;20644;-80
2022/04/06 07:08:44;;;;;;;3.47;1.00;;;9.90;99.90;;;;;;5006842;28;20617;-80
2022/04/06 07:11:11;;;;;;;3.37;1.30;;;9.90;99.90;;;;;;5019655;28;20210;-81
2022/04/06 07:13:38;;;;;;;3.87;1.30;;;9.90;99.90;;;;;;5007680;28;20206;-80
2022/04/06 07:16:06;;;;;;;5.13;1.60;;;9.90;99.90;;;;;;5013144;28;20686;-82
2022/04/06 07:18:33;;;;;;;6.60;2.00;;;9.90;99.90;;;;;;5020768;28;20251;-80
2022/04/06 07:21:02;;;;;;;5.67;1.33;;;10.00;99.90;;;;;;5003822;28;20757;-81
2022/04/06 07:23:30;;;;;;;7.90;1.83;;;9.90;99.90;;;;;;5024245;28;20273;-81
2022/04/06 07:25:57;;;;;;;3.03;1.03;;;10.00;99.90;;;;;;5022173;28;20237;-81
2022/04/06 07:28:23;;;;;;;9.63;1.00;;;10.00;99.90;;;;;;5020229;28;20201;-82
2022/04/06 07:30:50;;;;;;;3.27;1.00;;;10.00;99.90;;;;;;5009480;28;20235;-82
2022/04/06 07:33:17;;;;;;;5.73;1.40;;;10.00;99.90;;;;;;5007243;28;20704;-81
2022/04/06 07:35:46;;;;;;;6.13;1.40;;;10.00;99.90;;;;;;5025765;28;20660;-80
2022/04/06 07:38:14;;;;;;;5.63;1.60;;;10.10;99.90;;;;;;5004012;28;20213;-82
2022/04/06 07:40:41;;;;;;;2.73;1.53;;;10.10;99.90;;;;;;5006022;28;20208;-82
2022/04/06 07:43:09;;;;;;;5.20;1.40;;;10.10;99.90;;;;;;5002062;28;20728;-81
2022/04/06 07:45:37;;;;;;;4.57;1.50;;;10.20;99.90;;;;;;5002677;28;20212;-82
2022/04/06 07:48:04;;;;;;;5.67;1.37;;;10.20;99.90;;;;;;5011310;28;20213;-82
2022/04/06 07:50:32;;;;;;;4.17;2.20;;;10.20;99.90;;;;;;5008154;28;20215;-82
2022/04/06 07:53:00;;;;;;;4.80;1.50;;;10.10;99.90;;;;;;5026767;28;20563;-82
2022/04/06 07:55:29;;;;;;;6.23;1.50;;;10.10;99.90;;;;;;5025642;28;20250;-83
2022/04/06 07:57:56;;;;;;;6.63;1.70;;;10.10;99.90;;;;;;5026842;28;20206;-82
2022/04/06 08:00:23;;;;;;;6.63;2.10;;;10.10;99.90;;;;;;5008485;28;20888;-83
2022/04/06 08:02:51;;;;;;;7.20;1.90;;;10.10;99.90;;;;;;5010294;28;20253;-85
2022/04/06 08:05:19;;;;;;;7.37;1.67;;;10.10;99.90;;;;;;4995471;28;20309;-84
2022/04/06 08:07:48;;;;;;;4.93;1.60;;;10.10;99.90;;;;;;5010952;28;20217;-85
2022/04/06 08:10:16;;;;;;;5.20;2.00;;;10.10;99.90;;;;;;4998883;28;20202;-84
2022/04/06 08:12:44;;;;;;;5.07;1.70;;;10.10;99.90;;;;;;5011950;28;20213;-84
2022/04/06 08:15:11;;;;;;;4.67;1.70;;;10.10;99.90;;;;;;5012657;28;20213;-84
2022/04/06 08:17:41;;;;;;;4.30;2.00;;;10.10;99.90;;;;;;5025524;28;20234;-83
2022/04/06 08:20:09;;;;;;;6.03;1.73;;;10.10;99.90;;;;;;5010888;28;20201;-82
2022/04/06 08:22:36;;;;;;;7.47;2.00;;;10.20;99.90;;;;;;5014149;28;20263;-87
2022/04/06 08:25:04;;;;;;;5.50;2.00;;;10.20;99.90;;;;;;5022702;28;20207;-85
2022/04/06 08:27:52;;;;;;;6.03;2.00;;;10.10;99.90;;;;;;5008665;28;20213;-83
2022/04/06 08:30:22;;;;;;;6.67;1.60;;;10.20;99.90;;;;;;5008202;28;20209;-84
2022/04/06 08:32:51;;;;;;;7.67;2.10;;;10.10;99.90;;;;;;5029710;28;20259;-84
2022/04/06 08:35:17;;;;;;;4.10;1.67;;;10.20;99.90;;;;;;5009710;28;20255;-85
2022/04/06 08:37:44;;;;;;;5.23;1.97;;;10.20;99.90;;;;;;5009842;28;20242;-86
2022/04/06 08:40:12;;;;;;;5.33;2.30;;;10.20;99.90;;;;;;5015696;28;20216;-84
2022/04/06 08:42:39;;;;;;;12.23;2.10;;;10.20;99.90;;;;;;5019535;28;20250;-84
2022/04/06 08:45:07;;;;;;;4.83;1.90;;;10.20;99.90;;;;;;5036345;28;20949;-83
2022/04/06 08:47:36;;;;;;;7.87;2.13;;;10.20;99.90;;;;;;5037179;28;20224;-83
2022/04/06 08:50:05;;;;;;;7.43;2.10;;;10.20;99.90;;;;;;5020265;28;20213;-83
2022/04/06 08:52:34;;;;;;;6.40;2.27;;;10.30;99.90;;;;;;5018931;28;20205;-83
2022/04/06 08:55:20;;;;;;;4.60;2.27;;;10.30;99.90;;;;;;5025700;28;20313;-85
2022/04/06 08:57:47;;;;;;;6.20;1.90;;;10.20;99.90;;;;;;5032166;28;20199;-82
2022/04/06 09:00:18;;;;;;;4.47;2.03;;;10.20;99.90;;;;;;5018504;28;20207;-84
2022/04/06 09:02:46;;;;;;;4.83;1.93;;;10.20;99.90;;;;;;5015507;28;20260;-83
2022/04/06 09:05:13;;;;;;;6.30;2.20;;;10.00;99.90;;;;;;5029561;28;20728;-84
2022/04/06 09:07:41;;;;;;;8.27;2.33;;;9.90;99.90;;;;;;5009224;28;20261;-82
2022/04/06 09:10:09;;;;;;;5.00;2.53;;;10.00;99.90;;;;;;5011732;28;20252;-82
2022/04/06 09:12:35;;;;;;;5.83;2.30;;;10.00;99.90;;;;;;5015695;28;20259;-82
2022/04/06 09:15:11;;;;;;;6.40;2.10;;;10.00;99.90;;;;;;5032056;28;20706;-84
2022/04/06 09:17:46;;;;;;;6.20;2.50;;;9.90;99.90;;;;;;5030857;28;20235;-82
2022/04/06 09:20:14;;;;;;;9.40;2.73;;;10.00;99.90;;;;;;5013851;28;20549;-85
2022/04/06 09:22:46;;;;;;;6.17;2.10;;;10.00;99.90;;;;;;5017611;28;20672;-84
2022/04/06 09:25:16;;;;;;;8.83;2.93;;;9.80;99.90;;;;;;5023137;28;20250;-82
2022/04/06 09:27:43;;;;;;;5.13;2.83;;;9.80;99.90;;;;;;5013387;28;20197;-82
2022/04/06 09:30:10;;;;;;;6.03;2.50;;;9.80;99.90;;;;;;5013612;28;20220;-82
2022/04/06 09:32:39;;;;;;;4.23;2.10;;;9.70;99.90;;;;;;5014370;28;20213;-82
2022/04/06 09:35:25;;;;;;;9.07;2.93;;;9.80;99.90;;;;;;5030371;28;20261;-83
2022/04/06 09:38:12;;;;;;;9.53;2.60;;;9.80;99.90;;;;;;5031553;28;20512;-83
2022/04/06 09:40:39;;;;;;;7.60;2.87;;;9.80;99.90;;;;;;5034976;28;20240;-82
2022/04/06 09:43:08;;;;;;;7.10;3.03;;;9.70;99.90;;;;;;5017414;28;20250;-83
2022/04/06 09:48:21;;;;;;;7.70;2.57;;;9.70;99.90;;;;;;5030056;28;20205;-83
2022/04/06 09:50:54;;;;;;;8.30;2.90;;;9.70;99.90;;;;;;5032410;28;20228;-82
2022/04/06 09:53:26;;;;;;;3.70;2.53;;;9.70;99.90;;;;;;5033489;28;20219;-83
2022/04/06 09:55:55;;;;;;;9.07;3.00;;;9.70;99.90;;;;;;5016275;28;20310;-82
2022/04/06 09:58:23;;;;;;;6.00;3.07;;;9.70;99.90;;;;;;5031866;28;20193;-81
2022/04/06 10:00:52;;;;;;;12.07;3.47;;;9.70;99.90;;;;;;5010403;28;20303;-86
2022/04/06 10:03:21;;;;;;;7.87;3.67;;;9.60;99.90;;;;;;5011017;28;20429;-82
2022/04/06 10:05:51;;;;;;;9.27;3.03;;;9.60;99.90;;;;;;5006648;28;20660;-85
2022/04/06 10:08:18;;;;;;;11.00;3.47;;;9.50;99.90;;;;;;5010984;28;20288;-84
2022/04/06 10:10:45;;;;;;;10.40;3.83;;;9.50;99.90;;;;;;5006758;28;20262;-82
2022/04/06 10:13:13;;;;;;;9.20;3.80;;;9.50;99.90;;;;;;5012160;28;20569;-82
2022/04/06 10:16:00;;;;;;;6.67;3.67;;;9.50;99.90;;;;;;5029794;28;20329;-84
2022/04/06 10:18:31;;;;;;;11.03;4.00;;;9.50;99.90;;;;;;5027082;28;20208;-83
2022/04/06 10:21:04;;;;;;;6.47;3.47;;;9.50;99.90;;;;;;4989018;28;20281;-81
2022/04/06 10:24:04;;;;;;;6.97;4.00;;;9.50;99.90;;;;;;5009793;28;20933;-82
2022/04/06 10:26:50;;;;;;;5.80;3.10;;;9.50;99.90;;;;;;5003157;28;20338;-81
2022/04/06 10:29:18;;;;;;;9.97;3.87;;;9.50;99.90;;;;;;5029118;28;20202;-82
2022/04/06 10:31:46;;;;;;;5.67;3.00;;;9.60;99.90;;;;;;5026624;28;20425;-82
2022/04/06 10:34:27;;;;;;;8.67;3.97;;;9.60;99.90;;;;;;5024533;28;20615;-84
2022/04/06 10:37:11;;;;;;;7.07;3.63;;;9.60;99.90;;;;;;5007812;28;20298;-82
2022/04/06 10:39:50;;;;;;;5.40;3.43;;;9.60;99.90;;;;;;5011512;28;20204;-83
2022/04/06 10:42:28;;;;;;;4.47;3.53;;;9.70;99.90;;;;;;5003907;28;20201;-82
2022/04/06 10:44:55;;;;;;;9.37;3.67;;;9.70;99.90;;;;;;5010622;28;20242;-83
2022/04/06 10:47:23;;;;;;;7.53;3.50;;;9.70;99.90;;;;;;5008084;28;20623;-83
2022/04/06 10:50:15;;;;;;;6.03;3.17;;;9.70;99.90;;;;;;5011205;28;20212;-82
2022/04/06 10:52:43;;;;;;;5.67;2.90;;;9.80;99.90;;;;;;5013284;28;20207;-84
2022/04/06 10:55:19;;;;;;;4.80;2.60;;;9.80;99.90;;;;;;5008966;28;20354;-84
2022/04/06 10:57:57;;;;;;;8.17;2.70;;;9.80;99.90;;;;;;5012809;28;20233;-84
2022/04/06 11:00:25;;;;;;;8.27;2.97;;;9.80;99.90;;;;;;5028808;28;20311;-82
2022/04/06 11:02:53;;;;;;;8.13;2.50;;;9.90;99.90;;;;;;5027004;28;20217;-82
2022/04/06 11:05:40;;;;;;;4.47;2.83;;;9.90;99.90;;;;;;5011441;28;20240;-82
2022/04/06 11:11:32;;;;;;;4.60;2.40;;;9.90;99.90;;;;;;5010543;28;21599;-82
2022/04/06 11:14:00;;;;;;;7.43;2.93;;;10.00;99.90;;;;;;5024145;28;20251;-83
2022/04/06 11:16:48;;;;;;;11.47;2.67;;;10.00;99.90;;;;;;5030084;28;20218;-83
2022/04/06 11:19:16;;;;;;;10.23;3.17;;;10.00;99.90;;;;;;5011279;28;20222;-83
2022/04/06 11:21:49;;;;;;;7.23;2.73;;;10.00;99.90;;;;;;5014369;28;20537;-82
2022/04/06 11:24:36;;;;;;;4.23;2.87;;;10.00;99.90;;;;;;5032270;28;20586;-81
2022/04/06 11:27:03;;;;;;;8.70;3.63;;;10.00;99.90;;;;;;5031740;28;20301;-82
2022/04/06 11:29:31;;;;;;;7.20;2.40;;;10.10;99.90;;;;;;5031518;28;20566;-82
2022/04/06 11:32:00;;;;;;;11.20;2.50;;;10.10;99.90;;;;;;5014265;28;20209;-82
2022/04/06 11:34:36;;;;;;;12.30;4.13;;;10.10;99.90;;;;;;5008956;28;20227;-83
2022/04/06 11:37:09;;;;;;;2.77;2.13;;;10.20;99.90;;;;;;5015093;28;20213;-82
2022/04/06 11:39:36;;;;;;;5.67;2.80;;;10.20;99.90;;;;;;5030463;28;20222;-82
2022/04/06 11:42:04;;;;;;;4.97;2.57;;;10.30;99.90;;;;;;5014788;28;20532;-85
2022/04/06 11:44:33;;;;;;;6.17;2.83;;;10.30;99.90;;;;;;5032558;28;20272;-83
2022/04/06 11:47:00;;;;;;;5.83;3.23;;;10.40;99.90;;;;;;5014333;28;20251;-82
2022/04/06 11:49:31;;;;;;;7.80;3.17;;;10.40;99.90;;;;;;5025975;28;20658;-83
2022/04/06 11:51:59;;;;;;;8.50;2.87;;;10.40;99.90;;;;;;5030144;28;20508;-84
2022/04/06 11:54:27;;;;;;;6.13;3.10;;;10.40;99.90;;;;;;5029387;28;20212;-82
2022/04/06 11:56:55;;;;;;;6.73;2.70;;;10.50;99.90;;;;;;5032306;28;20244;-81
2022/04/06 11:59:23;;;;;;;4.80;2.87;;;10.50;99.90;;;;;;5012287;28;20202;-80
2022/04/06 12:01:52;;;;;;;4.33;2.37;;;10.50;99.90;;;;;;5014295;28;20268;-80
2022/04/06 12:04:22;;;;;;;5.93;2.93;;;10.60;99.90;;;;;;5015421;28;20261;-81
2022/04/06 12:06:54;;;;;;;6.07;2.67;;;10.60;99.90;;;;;;5010836;28;20205;-83
2022/04/06 12:09:23;;;;;;;5.03;2.30;;;10.60;99.90;;;;;;5009811;28;20226;-82
2022/04/06 12:11:51;;;;;;;7.07;2.90;;;10.60;99.90;;;;;;5017196;28;20215;-81
2022/04/06 12:14:20;;;;;;;5.73;2.30;;;10.60;99.90;;;;;;5015636;28;20247;-81
2022/04/06 12:16:49;;;;;;;3.93;2.67;;;10.60;99.90;;;;;;5014372;28;20202;-81
2022/04/06 12:19:18;;;;;;;5.10;2.20;;;10.60;99.90;;;;;;5009992;28;20201;-84
2022/04/06 12:21:48;;;;;;;6.33;2.20;;;10.60;99.90;;;;;;5020256;28;20214;-81
2022/04/06 12:24:18;;;;;;;4.27;2.40;;;10.70;99.90;;;;;;5008952;28;20749;-82
2022/04/06 12:26:54;;;;;;;3.17;2.40;;;10.70;99.90;;;;;;5015067;28;20213;-84
2022/04/06 12:29:21;;;;;;;2.70;2.17;;;10.70;99.90;;;;;;5005009;28;20206;-82
2022/04/06 12:31:48;;;;;;;7.47;2.67;;;10.70;99.90;;;;;;5031637;28;20201;-83
2022/04/06 12:34:28;;;;;;;3.00;2.37;;;10.70;99.90;;;;;;5010749;28;20299;-83
2022/04/06 12:36:55;;;;;;;4.73;2.40;;;10.80;99.90;;;;;;5029558;28;20198;-83
2022/04/06 12:39:24;;;;;;;3.40;2.73;;;10.70;99.90;;;;;;5017483;28;20287;-82
2022/04/06 12:42:02;;;;;;;3.93;2.10;;;10.70;99.90;;;;;;5031470;28;20207;-82
2022/04/06 12:44:35;;;;;;;6.53;2.37;;;10.60;99.90;;;;;;5009799;28;20253;-82
2022/04/06 12:47:03;;;;;;;4.60;2.40;;;10.60;99.90;;;;;;5010398;28;20688;-82
2022/04/06 12:49:42;;;;;;;4.70;2.67;;;10.70;99.90;;;;;;5025598;28;20251;-81
2022/04/06 12:52:10;;;;;;;6.93;2.73;;;10.80;99.90;;;;;;5013137;28;20246;-83
2022/04/06 12:54:39;;;;;;;4.87;2.50;;;10.80;99.90;;;;;;5010376;28;20626;-82
2022/04/06 12:57:11;;;;;;;5.50;2.23;;;10.90;99.90;;;;;;5010959;28;20275;-81
2022/04/06 12:59:40;;;;;;;3.93;3.53;;;10.90;99.90;;;;;;5026163;28;20212;-82
2022/04/06 13:02:21;;;;;;;7.47;2.43;;;10.90;99.90;;;;;;5010906;28;20200;-81
2022/04/06 13:04:49;;;;;;;9.37;2.47;;;10.90;99.90;;;;;;5026709;28;20244;-81
2022/04/06 13:07:16;;;;;;;4.90;2.63;;;10.90;99.90;;;;;;5011482;28;20234;-82
2022/04/06 13:10:26;;;;;;;6.13;3.23;;;10.80;99.90;;;;;;5007783;28;20211;-81
2022/04/06 13:12:53;;;;;;;4.40;2.73;;;10.80;99.90;;;;;;5015686;28;20270;-80